Flight Track Log - Related Links

Times and Time Zones

All times are in EDT time to prevent confusion due to time zone crossing. See the EJA929 flight status page for this flight to view local times or setup timezone preferences in your user account.

Time Position Orientation Groundspeed Altitude Reporting Facility
EDT Latitude Longitude Course Direction KTS MPH feet Rate Location/Type
Fri 05:33:24 AM 32.8333 -96.8333 128° Southeast 176 203 1,300  Level Dallas / Fort Worth TRACON
Fri 05:34:24 AM 32.8000 -96.7833 128° Southeast 216 249 5,200 3,524 Climbing Dallas / Fort Worth TRACON
Fri 05:35:30 AM 32.8500 -96.7167 48° Northeast 242 278 8,700 1,794 Climbing Dallas / Fort Worth TRACON
Fri 05:37:48 AM 33.0225 -96.5736 35° Northeast 331 381 11,300 1,303 Climbing Fort Worth Center
Fri 05:38:48 AM 33.1078 -96.4983 36° Northeast 364 419 13,000 1,700 Climbing Fort Worth Center
Fri 05:39:48 AM 33.1844 -96.4281 37° Northeast 382 440 14,700 1,600 Climbing Fort Worth Center
Fri 05:40:48 AM 33.2819 -96.3425 36° Northeast 387 445 16,200 1,300 Climbing Fort Worth Center
Fri 05:41:48 AM 33.3606 -96.2744 36° Northeast 387 445 17,300 1,200 Climbing Fort Worth Center
Fri 05:42:48 AM 33.4833 -96.2453 11° North 387 445 18,600 1,250 Climbing Fort Worth Center
Fri 05:43:48 AM 33.5789 -96.1992 22° Northeast 398 458 19,800 1,300 Climbing Fort Worth Center
Fri 05:44:48 AM 33.6825 -96.1081 36° Northeast 409 471 21,200 1,500 Climbing Fort Worth Center
Fri 05:45:48 AM 33.7672 -96.0292 38° Northeast 429 494 22,800 1,350 Climbing Fort Worth Center
Fri 05:46:48 AM 33.8789 -95.9325 36° Northeast 434 499 23,900 1,050 Climbing Fort Worth Center
Fri 05:47:48 AM 33.9797 -95.8381 38° Northeast 439 505 24,900 1,400 Climbing Fort Worth Center
Fri 05:48:48 AM 34.0831 -95.7433 37° Northeast 454 522 26,700 1,650 Climbing Fort Worth Center
Fri 05:49:48 AM 34.1881 -95.6508 36° Northeast 460 529 28,200 1,300 Climbing Fort Worth Center
Fri 05:50:48 AM 34.2931 -95.5558 37° Northeast 460 529 29,300 1,200 Climbing Fort Worth Center
Fri 05:51:48 AM 34.4003 -95.4603 36° Northeast 468 539 30,600 1,450 Climbing Fort Worth Center
Fri 05:52:48 AM 34.5092 -95.3597 37° Northeast 480 552 32,200 1,374 Climbing Fort Worth Center
Fri 05:54:47 AM 34.7206 -95.1603 38° Northeast 502 578 34,700 1,567 Climbing Kansas City Center
Fri 05:55:48 AM 34.8325 -95.0539 38° Northeast 509 586 36,900 2,148 Climbing Kansas City Center
Fri 05:56:08 AM 34.8806 -95.0175 32° Northeast 504 580 37,600 1,725 Climbing Memphis Center
Fri 05:57:08 AM 34.9908 -94.9144 37° Northeast 499 574 39,200 1,450 Climbing Memphis Center
Fri 05:58:08 AM 35.1033 -94.8039 39° Northeast 505 581 40,500 1,069 Climbing Memphis Center
Fri 05:58:49 AM 35.1633 -94.7461 38° Northeast 509 586 41,000 500 Climbing Kansas City Center
Fri 05:59:08 AM 35.2175 -94.7006 34° Northeast 505 581 41,000  Level Memphis Center
Fri 06:00:08 AM 35.3364 -94.5847 38° Northeast 521 600 41,000  Level Memphis Center
Fri 06:01:08 AM 35.4567 -94.4736 37° Northeast 536 617 41,000  Level Memphis Center
Fri 06:02:08 AM 35.5772 -94.3594 38° Northeast 536 617 41,000  Level Memphis Center
Fri 06:03:08 AM 35.6997 -94.2453 37° Northeast 542 624 41,000  Level Memphis Center
Fri 06:04:08 AM 35.8181 -94.1306 38° Northeast 547 629 41,000  Level Memphis Center
Fri 06:05:08 AM 35.9339 -94.0178 38° Northeast 535 616 41,000  Level Memphis Center
Fri 06:06:08 AM 36.0519 -93.9050 38° Northeast 535 616 41,000  Level Memphis Center
Fri 06:07:53 AM 36.2347 -93.7261 38° Northeast 535 616 41,000  Level Kansas City Center
Fri 06:08:54 AM 36.3511 -93.6142 38° Northeast 531 611 41,000  Level Kansas City Center
Fri 06:09:54 AM 36.4664 -93.5011 38° Northeast 528 608 41,000  Level Kansas City Center
Fri 06:10:54 AM 36.5825 -93.3889 38° Northeast 528 608 41,000  Level Kansas City Center
Fri 06:11:55 AM 36.6997 -93.2744 38° Northeast 532 612 41,000  Level Kansas City Center
Fri 06:12:55 AM 36.8383 -93.1356 39° Northeast 533 613 41,000  Level Kansas City Center
Fri 06:13:56 AM 36.9411 -93.0353 38° Northeast 531 611 41,000  Level Kansas City Center
Fri 06:14:56 AM 37.0567 -92.9203 38° Northeast 529 609 41,000  Level Kansas City Center
Fri 06:15:56 AM 37.1725 -92.8044 39° Northeast 532 612 41,000  Level Kansas City Center
Fri 06:16:57 AM 37.2861 -92.6889 39° Northeast 527 606 41,000  Level Kansas City Center
Fri 06:17:57 AM 37.4014 -92.5731 39° Northeast 528 608 41,000  Level Kansas City Center
Fri 06:18:58 AM 37.5147 -92.4547 40° Northeast 527 606 41,000  Level Kansas City Center
Fri 06:19:58 AM 37.6294 -92.3400 38° Northeast 527 606 41,000  Level Kansas City Center
Fri 06:20:58 AM 37.7472 -92.2194 39° Northeast 526 605 41,000  Level Kansas City Center
Fri 06:21:59 AM 37.8594 -92.1006 40° Northeast 527 606 41,000  Level Kansas City Center
Fri 06:22:59 AM 37.9889 -91.9700 38° Northeast 529 609 41,000  Level Kansas City Center
Fri 06:23:59 AM 38.1033 -91.8525 39° Northeast 529 609 41,000  Level Kansas City Center
Fri 06:25:00 AM 38.2169 -91.7339 39° Northeast 530 610 41,000  Level Kansas City Center
Fri 06:26:00 AM 38.3314 -91.6147 39° Northeast 531 611 41,000  Level Kansas City Center
Fri 06:27:00 AM 38.4442 -91.4958 40° Northeast 527 606 41,000  Level Kansas City Center
Fri 06:28:01 AM 38.5567 -91.3786 39° Northeast 523 602 41,000  Level Kansas City Center
Fri 06:29:01 AM 38.6569 -91.2733 39° Northeast 526 605 41,000  Level Kansas City Center
Fri 06:30:02 AM 38.7761 -91.1686 34° Northeast 520 598 41,000  Level Kansas City Center
Fri 06:31:02 AM 38.8886 -91.0483 40° Northeast 522 601 41,000  Level Kansas City Center
Fri 06:32:02 AM 39.0117 -90.9458 33° Northeast 524 603 41,000  Level Kansas City Center
Fri 06:33:03 AM 39.1397 -90.8619 27° Northeast 516 594 41,000  Level Kansas City Center
Fri 06:34:03 AM 39.2653 -90.7761 28° Northeast 510 587 41,000  Level Kansas City Center
Fri 06:35:04 AM 39.3914 -90.6897 28° Northeast 512 589 41,000  Level Kansas City Center
Fri 06:36:04 AM 39.5142 -90.6050 28° Northeast 504 580 41,000  Level Kansas City Center
Fri 06:37:04 AM 39.6369 -90.5214 28° Northeast 500 575 41,000  Level Kansas City Center
Fri 06:38:05 AM 39.7619 -90.4369 27° Northeast 499 574 41,000  Level Kansas City Center
Fri 06:39:05 AM 39.8847 -90.3517 28° Northeast 501 577 41,000  Level Kansas City Center
Fri 06:40:05 AM 40.0078 -90.2658 28° Northeast 502 578 41,000  Level Kansas City Center
Fri 06:41:06 AM 40.1308 -90.1803 28° Northeast 501 577 41,000 -694 Level Kansas City Center
Fri 06:42:06 AM 40.2525 -90.0947 28° Northeast 499 574 39,600 -2,274 Descending Kansas City Center
Fri 06:42:41 AM 40.3228 -90.0461 28° Northeast 488 562 37,400 -3,313 Descending Chicago Center
Fri 06:43:42 AM 40.4317 -89.9697 28° Northeast 451 519 34,300 -3,197 Descending Chicago Center
Fri 06:44:43 AM 40.5489 -89.8856 29° Northeast 454 522 30,900 -3,393 Descending Chicago Center
Fri 06:45:44 AM 40.6633 -89.8017 29° Northeast 468 539 27,400 -3,322 Descending Chicago Center
Fri 06:46:44 AM 40.7408 -89.6550 55° Northeast 484 557 24,200 -1,700 Descending Chicago Center
Fri 06:47:44 AM 40.8103 -89.4925 61° Northeast 474 545 24,000 -496 Descending Chicago Center
Fri 06:48:45 AM 40.8775 -89.3433 59° Northeast 472 543 23,200 -1,426 Descending Chicago Center
Fri 06:49:46 AM 40.9519 -89.2292 49° Northeast 411 473 21,100 -2,281 Descending Chicago Center
Fri 06:50:46 AM 41.0342 -89.1031 49° Northeast 408 470 18,600 -2,826 Descending Chicago Center
Fri 06:51:47 AM 41.1086 -88.9931 48° Northeast 399 459 15,400 -3,273 Descending Chicago Center
Fri 06:52:47 AM 41.1789 -88.8858 49° Northeast 390 449 12,000 -2,430 Descending Chicago Center
Fri 06:53:48 AM 41.2414 -88.7892 49° Northeast 347 399 10,500 -1,475 Descending Chicago Center
Fri 06:54:49 AM 41.2911 -88.7119 49° Northeast 283 326 9,000 -1,636 Descending Chicago Center
Fri 06:55:49 AM 41.3292 -88.6275 59° Northeast 268 308 7,200 -1,488 Descending Chicago Center
Fri 06:56:50 AM 41.3642 -88.5447 61° Northeast 258 297 6,000 -590 Descending Chicago Center
Fri 06:57:51 AM 41.4000 -88.4633 60° Northeast 256 295 6,000  Level Chicago Center
Fri 06:58:51 AM 41.4353 -88.3811 60° Northeast 256 295 6,000  Level Chicago Center
Fri 06:59:52 AM 41.4703 -88.2989 60° Northeast 255 293 6,000 -492 Level Chicago Center
Fri 07:00:53 AM 41.5058 -88.2158 60° Northeast 256 295 5,000 -992 Descending Chicago Center
Fri 07:01:53 AM 41.5422 -88.1317 60° Northeast 259 298 4,000 -496 Descending Chicago Center
Fri 07:02:54 AM 41.5769 -88.0525 60° Northeast 251 289 4,000  Level Chicago Center
Fri 07:03:55 AM 41.6100 -87.9744 60° Northeast 245 282 4,000  Level Chicago Center
Fri 07:04:56 AM 41.6575 -87.9125 44° Northeast 244 281 4,000 -446 Level Chicago Center
Fri 07:05:56 AM 41.6944 -87.8678 42° Northeast 207 238 3,100 -843 Descending Chicago Center
Fri 07:06:57 AM 41.7239 -87.8306 43° Northeast 171 197 2,300 -738 Descending Chicago Center
Fri 07:07:58 AM 41.7494 -87.7975 44° Northeast 148 170 1,600 -639 Descending Chicago Center
Fri 07:08:59 AM 41.7731 -87.7669 44° Northeast 130 150 1,000 -590 Descending Chicago Center
Fri 07:10:00 AM 41.7833 -87.7500 North  Level FlightAware Approximate

Login

Don't have an account? Register now (free) for customized features, flight alerts, and more!